sensor_id;sensor_type;location;lat;lon;timestamp;P1;durP1;ratioP1;P2;durP2;ratioP2
56477;SDS011;42382;53.210;5.772;2024-01-15T00:01:28;18.73;;;1.58;;
56477;SDS011;42382;53.210;5.772;2024-01-15T00:03:54;23.33;;;1.95;;
56477;SDS011;42382;53.210;5.772;2024-01-15T00:06:20;20.27;;;1.55;;
56477;SDS011;42382;53.210;5.772;2024-01-15T00:08:45;18.50;;;1.75;;
56477;SDS011;42382;53.210;5.772;2024-01-15T00:11:11;19.52;;;3.28;;
56477;SDS011;42382;53.210;5.772;2024-01-15T00:13:37;15.23;;;1.15;;
56477;SDS011;42382;53.210;5.772;2024-01-15T00:16:03;21.15;;;1.77;;
56477;SDS011;42382;53.210;5.772;2024-01-15T00:18:29;12.60;;;1.58;;
56477;SDS011;42382;53.210;5.772;2024-01-15T00:20:55;19.00;;;2.58;;
56477;SDS011;42382;53.210;5.772;2024-01-15T00:23:22;15.40;;;1.50;;
56477;SDS011;42382;53.210;5.772;2024-01-15T00:25:47;17.92;;;2.28;;
56477;SDS011;42382;53.210;5.772;2024-01-15T00:28:13;17.52;;;1.55;;
56477;SDS011;42382;53.210;5.772;2024-01-15T00:30:39;16.77;;;1.90;;
56477;SDS011;42382;53.210;5.772;2024-01-15T00:33:04;19.35;;;1.70;;
56477;SDS011;42382;53.210;5.772;2024-01-15T00:35:30;20.05;;;2.28;;
56477;SDS011;42382;53.210;5.772;2024-01-15T00:37:55;19.13;;;2.53;;
56477;SDS011;42382;53.210;5.772;2024-01-15T00:40:21;10.27;;;0.80;;
56477;SDS011;42382;53.210;5.772;2024-01-15T00:42:47;10.63;;;0.70;;
56477;SDS011;42382;53.210;5.772;2024-01-15T00:45:12;12.02;;;0.60;;
56477;SDS011;42382;53.210;5.772;2024-01-15T00:47:38;9.35;;;0.20;;
56477;SDS011;42382;53.210;5.772;2024-01-15T00:50:04;5.93;;;0.40;;
56477;SDS011;42382;53.210;5.772;2024-01-15T00:52:30;4.47;;;0.30;;
56477;SDS011;42382;53.210;5.772;2024-01-15T00:54:55;10.80;;;1.27;;
56477;SDS011;42382;53.210;5.772;2024-01-15T00:57:21;10.90;;;1.10;;
56477;SDS011;42382;53.210;5.772;2024-01-15T00:59:46;7.90;;;0.50;;
56477;SDS011;42382;53.210;5.772;2024-01-15T01:02:13;11.20;;;0.90;;
56477;SDS011;42382;53.210;5.772;2024-01-15T01:04:38;11.15;;;1.23;;
56477;SDS011;42382;53.210;5.772;2024-01-15T01:07:05;18.95;;;0.95;;
56477;SDS011;42382;53.210;5.772;2024-01-15T01:09:31;16.95;;;1.95;;
56477;SDS011;42382;53.210;5.772;2024-01-15T01:11:56;23.33;;;1.80;;
56477;SDS011;42382;53.210;5.772;2024-01-15T01:14:22;19.58;;;1.17;;
56477;SDS011;42382;53.210;5.772;2024-01-15T01:16:48;16.38;;;1.40;;
56477;SDS011;42382;53.210;5.772;2024-01-15T01:19:13;20.50;;;1.80;;
56477;SDS011;42382;53.210;5.772;2024-01-15T01:21:39;20.10;;;1.90;;
56477;SDS011;42382;53.210;5.772;2024-01-15T01:24:04;28.60;;;2.72;;
56477;SDS011;42382;53.210;5.772;2024-01-15T01:26:30;23.58;;;1.90;;
56477;SDS011;42382;53.210;5.772;2024-01-15T01:28:56;18.52;;;1.85;;
56477;SDS011;42382;53.210;5.772;2024-01-15T01:31:22;20.25;;;2.13;;
56477;SDS011;42382;53.210;5.772;2024-01-15T01:33:48;26.50;;;3.00;;
56477;SDS011;42382;53.210;5.772;2024-01-15T01:36:14;26.02;;;2.38;;
56477;SDS011;42382;53.210;5.772;2024-01-15T01:38:40;24.90;;;1.95;;
56477;SDS011;42382;53.210;5.772;2024-01-15T01:41:06;16.48;;;1.95;;
56477;SDS011;42382;53.210;5.772;2024-01-15T01:43:32;26.83;;;1.98;;
56477;SDS011;42382;53.210;5.772;2024-01-15T01:45:58;34.25;;;2.05;;
56477;SDS011;42382;53.210;5.772;2024-01-15T01:48:25;21.35;;;2.00;;
56477;SDS011;42382;53.210;5.772;2024-01-15T01:50:52;20.80;;;2.45;;
56477;SDS011;42382;53.210;5.772;2024-01-15T01:53:19;24.73;;;2.85;;
56477;SDS011;42382;53.210;5.772;2024-01-15T01:55:45;29.23;;;2.72;;
56477;SDS011;42382;53.210;5.772;2024-01-15T01:58:13;30.13;;;3.03;;
56477;SDS011;42382;53.210;5.772;2024-01-15T02:00:39;25.08;;;1.88;;
56477;SDS011;42382;53.210;5.772;2024-01-15T02:03:05;22.33;;;2.10;;
56477;SDS011;42382;53.210;5.772;2024-01-15T02:05:34;23.65;;;1.92;;
56477;SDS011;42382;53.210;5.772;2024-01-15T02:08:04;24.98;;;2.45;;
56477;SDS011;42382;53.210;5.772;2024-01-15T02:10:30;19.73;;;1.70;;
56477;SDS011;42382;53.210;5.772;2024-01-15T02:12:55;21.55;;;2.50;;
56477;SDS011;42382;53.210;5.772;2024-01-15T02:15:21;23.77;;;2.05;;
56477;SDS011;42382;53.210;5.772;2024-01-15T02:18:05;18.52;;;1.40;;
56477;SDS011;42382;53.210;5.772;2024-01-15T02:20:34;16.98;;;1.73;;
56477;SDS011;42382;53.210;5.772;2024-01-15T02:23:10;16.98;;;1.60;;
56477;SDS011;42382;53.210;5.772;2024-01-15T02:25:37;13.30;;;1.25;;
56477;SDS011;42382;53.210;5.772;2024-01-15T02:28:04;14.13;;;1.35;;
56477;SDS011;42382;53.210;5.772;2024-01-15T02:30:31;21.25;;;1.90;;
56477;SDS011;42382;53.210;5.772;2024-01-15T02:32:59;16.92;;;0.90;;
56477;SDS011;42382;53.210;5.772;2024-01-15T02:35:25;17.55;;;1.50;;
56477;SDS011;42382;53.210;5.772;2024-01-15T02:37:50;20.88;;;1.73;;
56477;SDS011;42382;53.210;5.772;2024-01-15T02:40:16;21.15;;;1.55;;
56477;SDS011;42382;53.210;5.772;2024-01-15T02:42:41;11.57;;;1.15;;
56477;SDS011;42382;53.210;5.772;2024-01-15T02:45:07;9.57;;;0.75;;
56477;SDS011;42382;53.210;5.772;2024-01-15T02:47:33;7.68;;;0.52;;
56477;SDS011;42382;53.210;5.772;2024-01-15T02:49:58;8.18;;;0.95;;
56477;SDS011;42382;53.210;5.772;2024-01-15T02:52:24;12.82;;;1.00;;
56477;SDS011;42382;53.210;5.772;2024-01-15T02:54:49;15.73;;;1.33;;
56477;SDS011;42382;53.210;5.772;2024-01-15T02:57:15;16.95;;;1.92;;
56477;SDS011;42382;53.210;5.772;2024-01-15T02:59:41;15.48;;;1.38;;
56477;SDS011;42382;53.210;5.772;2024-01-15T03:02:06;18.10;;;1.70;;
56477;SDS011;42382;53.210;5.772;2024-01-15T03:04:32;17.88;;;1.08;;
56477;SDS011;42382;53.210;5.772;2024-01-15T03:06:57;17.15;;;1.85;;
56477;SDS011;42382;53.210;5.772;2024-01-15T03:09:26;17.52;;;2.65;;
56477;SDS011;42382;53.210;5.772;2024-01-15T03:11:51;19.17;;;1.80;;
56477;SDS011;42382;53.210;5.772;2024-01-15T03:14:17;21.20;;;2.65;;
56477;SDS011;42382;53.210;5.772;2024-01-15T03:16:42;19.10;;;1.75;;
56477;SDS011;42382;53.210;5.772;2024-01-15T03:19:08;7.10;;;0.80;;
56477;SDS011;42382;53.210;5.772;2024-01-15T03:21:34;8.70;;;0.50;;
56477;SDS011;42382;53.210;5.772;2024-01-15T03:23:59;13.55;;;1.55;;
56477;SDS011;42382;53.210;5.772;2024-01-15T03:26:25;9.68;;;0.98;;
56477;SDS011;42382;53.210;5.772;2024-01-15T03:28:50;18.00;;;1.50;;
56477;SDS011;42382;53.210;5.772;2024-01-15T03:31:16;12.75;;;1.00;;
56477;SDS011;42382;53.210;5.772;2024-01-15T03:33:42;15.02;;;1.23;;
56477;SDS011;42382;53.210;5.772;2024-01-15T03:36:08;11.65;;;1.15;;
56477;SDS011;42382;53.210;5.772;2024-01-15T03:38:33;13.23;;;0.85;;
56477;SDS011;42382;53.210;5.772;2024-01-15T03:40:59;11.32;;;0.95;;
56477;SDS011;42382;53.210;5.772;2024-01-15T03:43:25;7.50;;;0.70;;
56477;SDS011;42382;53.210;5.772;2024-01-15T03:45:51;15.30;;;0.75;;
56477;SDS011;42382;53.210;5.772;2024-01-15T03:48:17;8.88;;;0.40;;
56477;SDS011;42382;53.210;5.772;2024-01-15T03:50:43;2.28;;;0.10;;
56477;SDS011;42382;53.210;5.772;2024-01-15T03:53:08;5.80;;;0.10;;
56477;SDS011;42382;53.210;5.772;2024-01-15T03:55:34;5.28;;;0.17;;
56477;SDS011;42382;53.210;5.772;2024-01-15T03:57:59;4.28;;;1.17;;
56477;SDS011;42382;53.210;5.772;2024-01-15T04:00:25;4.07;;;0.30;;
56477;SDS011;42382;53.210;5.772;2024-01-15T04:02:51;7.57;;;0.50;;
56477;SDS011;42382;53.210;5.772;2024-01-15T04:05:17;9.60;;;0.40;;
56477;SDS011;42382;53.210;5.772;2024-01-15T04:07:42;6.97;;;0.57;;
56477;SDS011;42382;53.210;5.772;2024-01-15T04:10:08;7.68;;;0.63;;
56477;SDS011;42382;53.210;5.772;2024-01-15T04:12:34;15.15;;;1.60;;
56477;SDS011;42382;53.210;5.772;2024-01-15T04:14:59;9.43;;;1.15;;
56477;SDS011;42382;53.210;5.772;2024-01-15T04:17:26;11.65;;;1.00;;
56477;SDS011;42382;53.210;5.772;2024-01-15T04:19:52;11.40;;;1.05;;
56477;SDS011;42382;53.210;5.772;2024-01-15T04:22:18;13.63;;;1.15;;
56477;SDS011;42382;53.210;5.772;2024-01-15T04:24:43;9.30;;;1.38;;
56477;SDS011;42382;53.210;5.772;2024-01-15T04:27:09;16.90;;;0.77;;
56477;SDS011;42382;53.210;5.772;2024-01-15T04:29:34;13.25;;;1.05;;
56477;SDS011;42382;53.210;5.772;2024-01-15T04:32:04;13.88;;;1.00;;
56477;SDS011;42382;53.210;5.772;2024-01-15T04:34:29;10.60;;;0.80;;
56477;SDS011;42382;53.210;5.772;2024-01-15T04:36:55;9.40;;;0.80;;
56477;SDS011;42382;53.210;5.772;2024-01-15T04:39:20;14.68;;;1.13;;
56477;SDS011;42382;53.210;5.772;2024-01-15T04:41:47;9.38;;;0.68;;
56477;SDS011;42382;53.210;5.772;2024-01-15T04:44:13;12.90;;;1.27;;
56477;SDS011;42382;53.210;5.772;2024-01-15T04:46:38;8.20;;;0.80;;
56477;SDS011;42382;53.210;5.772;2024-01-15T04:49:04;8.10;;;1.33;;
56477;SDS011;42382;53.210;5.772;2024-01-15T04:51:30;10.57;;;1.40;;
56477;SDS011;42382;53.210;5.772;2024-01-15T04:53:55;9.80;;;0.90;;
56477;SDS011;42382;53.210;5.772;2024-01-15T04:56:21;10.73;;;1.58;;
56477;SDS011;42382;53.210;5.772;2024-01-15T04:58:46;17.17;;;0.65;;
56477;SDS011;42382;53.210;5.772;2024-01-15T05:01:12;15.45;;;1.02;;
56477;SDS011;42382;53.210;5.772;2024-01-15T05:03:37;13.50;;;0.73;;
56477;SDS011;42382;53.210;5.772;2024-01-15T05:06:04;11.68;;;1.08;;
56477;SDS011;42382;53.210;5.772;2024-01-15T05:08:29;15.02;;;1.10;;
56477;SDS011;42382;53.210;5.772;2024-01-15T05:10:55;17.70;;;1.35;;
56477;SDS011;42382;53.210;5.772;2024-01-15T05:13:21;11.35;;;1.45;;
56477;SDS011;42382;53.210;5.772;2024-01-15T05:15:46;12.20;;;1.65;;
56477;SDS011;42382;53.210;5.772;2024-01-15T05:18:12;20.38;;;1.30;;
56477;SDS011;42382;53.210;5.772;2024-01-15T05:20:38;18.48;;;1.67;;
56477;SDS011;42382;53.210;5.772;2024-01-15T05:23:03;24.92;;;2.53;;
56477;SDS011;42382;53.210;5.772;2024-01-15T05:25:29;22.45;;;2.20;;
56477;SDS011;42382;53.210;5.772;2024-01-15T05:27:54;23.88;;;1.80;;
56477;SDS011;42382;53.210;5.772;2024-01-15T05:30:20;20.73;;;2.42;;
56477;SDS011;42382;53.210;5.772;2024-01-15T05:32:46;12.52;;;1.33;;
56477;SDS011;42382;53.210;5.772;2024-01-15T05:35:11;16.60;;;1.20;;
56477;SDS011;42382;53.210;5.772;2024-01-15T05:37:38;20.00;;;1.58;;
56477;SDS011;42382;53.210;5.772;2024-01-15T05:40:05;13.60;;;1.35;;
56477;SDS011;42382;53.210;5.772;2024-01-15T05:42:31;13.68;;;1.20;;
56477;SDS011;42382;53.210;5.772;2024-01-15T05:44:57;16.63;;;2.00;;
56477;SDS011;42382;53.210;5.772;2024-01-15T05:47:24;17.80;;;2.03;;
56477;SDS011;42382;53.210;5.772;2024-01-15T05:49:50;17.60;;;1.40;;
56477;SDS011;42382;53.210;5.772;2024-01-15T05:52:15;17.90;;;1.63;;
56477;SDS011;42382;53.210;5.772;2024-01-15T05:54:41;25.35;;;1.95;;
56477;SDS011;42382;53.210;5.772;2024-01-15T05:57:07;19.38;;;1.75;;
56477;SDS011;42382;53.210;5.772;2024-01-15T05:59:33;13.95;;;1.63;;
56477;SDS011;42382;53.210;5.772;2024-01-15T06:02:01;18.48;;;1.33;;
56477;SDS011;42382;53.210;5.772;2024-01-15T06:04:26;11.10;;;1.05;;
56477;SDS011;42382;53.210;5.772;2024-01-15T06:06:52;12.95;;;0.98;;
56477;SDS011;42382;53.210;5.772;2024-01-15T06:09:17;9.18;;;0.80;;
56477;SDS011;42382;53.210;5.772;2024-01-15T06:11:43;14.55;;;0.80;;
56477;SDS011;42382;53.210;5.772;2024-01-15T06:14:08;10.93;;;0.60;;
56477;SDS011;42382;53.210;5.772;2024-01-15T06:16:34;8.88;;;0.77;;
56477;SDS011;42382;53.210;5.772;2024-01-15T06:19:00;11.00;;;0.68;;
56477;SDS011;42382;53.210;5.772;2024-01-15T06:21:25;13.70;;;0.80;;
56477;SDS011;42382;53.210;5.772;2024-01-15T06:23:51;8.18;;;0.40;;
56477;SDS011;42382;53.210;5.772;2024-01-15T06:26:16;9.27;;;0.82;;
56477;SDS011;42382;53.210;5.772;2024-01-15T06:28:42;8.20;;;0.70;;
56477;SDS011;42382;53.210;5.772;2024-01-15T06:31:08;8.95;;;1.33;;
56477;SDS011;42382;53.210;5.772;2024-01-15T06:33:33;8.15;;;0.75;;
56477;SDS011;42382;53.210;5.772;2024-01-15T06:35:59;12.43;;;0.68;;
56477;SDS011;42382;53.210;5.772;2024-01-15T06:38:25;11.27;;;1.33;;
56477;SDS011;42382;53.210;5.772;2024-01-15T06:40:50;14.13;;;1.25;;
56477;SDS011;42382;53.210;5.772;2024-01-15T06:43:16;13.90;;;1.17;;
56477;SDS011;42382;53.210;5.772;2024-01-15T06:45:43;11.60;;;1.23;;
56477;SDS011;42382;53.210;5.772;2024-01-15T06:48:09;9.70;;;1.60;;
56477;SDS011;42382;53.210;5.772;2024-01-15T06:50:34;10.27;;;1.00;;
56477;SDS011;42382;53.210;5.772;2024-01-15T06:53:00;15.48;;;1.10;;
56477;SDS011;42382;53.210;5.772;2024-01-15T06:55:26;12.82;;;0.82;;
56477;SDS011;42382;53.210;5.772;2024-01-15T06:57:52;11.93;;;0.85;;
56477;SDS011;42382;53.210;5.772;2024-01-15T07:00:18;18.73;;;1.73;;
56477;SDS011;42382;53.210;5.772;2024-01-15T07:02:47;24.48;;;2.40;;
56477;SDS011;42382;53.210;5.772;2024-01-15T07:05:12;13.45;;;1.33;;
56477;SDS011;42382;53.210;5.772;2024-01-15T07:07:38;21.00;;;1.95;;
56477;SDS011;42382;53.210;5.772;2024-01-15T07:10:04;15.70;;;0.88;;
56477;SDS011;42382;53.210;5.772;2024-01-15T07:12:31;16.42;;;1.88;;
56477;SDS011;42382;53.210;5.772;2024-01-15T07:14:56;14.93;;;1.40;;
56477;SDS011;42382;53.210;5.772;2024-01-15T07:17:22;16.92;;;1.33;;
56477;SDS011;42382;53.210;5.772;2024-01-15T07:19:48;15.52;;;1.23;;
56477;SDS011;42382;53.210;5.772;2024-01-15T07:22:13;11.18;;;1.10;;
56477;SDS011;42382;53.210;5.772;2024-01-15T07:24:40;17.35;;;2.03;;
56477;SDS011;42382;53.210;5.772;2024-01-15T07:27:05;12.57;;;1.13;;
56477;SDS011;42382;53.210;5.772;2024-01-15T07:29:31;19.02;;;1.70;;
56477;SDS011;42382;53.210;5.772;2024-01-15T07:31:58;13.40;;;1.25;;
56477;SDS011;42382;53.210;5.772;2024-01-15T07:34:23;15.13;;;0.90;;
56477;SDS011;42382;53.210;5.772;2024-01-15T07:36:49;8.85;;;0.55;;
56477;SDS011;42382;53.210;5.772;2024-01-15T07:39:15;5.32;;;0.57;;
56477;SDS011;42382;53.210;5.772;2024-01-15T07:41:40;6.13;;;0.30;;
56477;SDS011;42382;53.210;5.772;2024-01-15T07:44:06;4.22;;;0.10;;
56477;SDS011;42382;53.210;5.772;2024-01-15T07:46:32;4.25;;;0.30;;
56477;SDS011;42382;53.210;5.772;2024-01-15T07:48:57;3.78;;;0.52;;
56477;SDS011;42382;53.210;5.772;2024-01-15T07:51:23;2.55;;;0.20;;
56477;SDS011;42382;53.210;5.772;2024-01-15T07:53:50;3.13;;;0.30;;
56477;SDS011;42382;53.210;5.772;2024-01-15T07:56:16;2.70;;;0.30;;
56477;SDS011;42382;53.210;5.772;2024-01-15T07:58:41;2.53;;;0.10;;
56477;SDS011;42382;53.210;5.772;2024-01-15T08:01:07;7.57;;;0.30;;
56477;SDS011;42382;53.210;5.772;2024-01-15T08:03:33;5.65;;;0.20;;
56477;SDS011;42382;53.210;5.772;2024-01-15T08:05:59;4.28;;;1.38;;
56477;SDS011;42382;53.210;5.772;2024-01-15T08:08:25;4.10;;;0.28;;
56477;SDS011;42382;53.210;5.772;2024-01-15T08:10:53;2.85;;;0.40;;
56477;SDS011;42382;53.210;5.772;2024-01-15T08:13:19;5.15;;;0.40;;
56477;SDS011;42382;53.210;5.772;2024-01-15T08:15:45;4.75;;;0.30;;
56477;SDS011;42382;53.210;5.772;2024-01-15T08:18:11;11.82;;;0.40;;
56477;SDS011;42382;53.210;5.772;2024-01-15T08:20:37;5.70;;;0.52;;
56477;SDS011;42382;53.210;5.772;2024-01-15T08:23:03;9.32;;;0.80;;
56477;SDS011;42382;53.210;5.772;2024-01-15T08:25:29;6.80;;;0.80;;
56477;SDS011;42382;53.210;5.772;2024-01-15T08:27:56;13.68;;;1.25;;
56477;SDS011;42382;53.210;5.772;2024-01-15T08:30:22;15.98;;;1.17;;
56477;SDS011;42382;53.210;5.772;2024-01-15T08:32:55;14.25;;;0.95;;
56477;SDS011;42382;53.210;5.772;2024-01-15T08:35:21;16.83;;;1.15;;
56477;SDS011;42382;53.210;5.772;2024-01-15T08:37:51;9.75;;;1.60;;
56477;SDS011;42382;53.210;5.772;2024-01-15T08:40:18;10.13;;;0.65;;
56477;SDS011;42382;53.210;5.772;2024-01-15T08:42:43;9.52;;;0.73;;
56477;SDS011;42382;53.210;5.772;2024-01-15T08:45:12;9.35;;;0.70;;
56477;SDS011;42382;53.210;5.772;2024-01-15T08:47:38;6.03;;;0.57;;
56477;SDS011;42382;53.210;5.772;2024-01-15T08:50:04;12.85;;;0.88;;
56477;SDS011;42382;53.210;5.772;2024-01-15T08:52:30;8.85;;;1.02;;
56477;SDS011;42382;53.210;5.772;2024-01-15T08:54:56;11.05;;;0.82;;
56477;SDS011;42382;53.210;5.772;2024-01-15T08:57:22;7.70;;;1.17;;
56477;SDS011;42382;53.210;5.772;2024-01-15T08:59:48;11.18;;;0.88;;
56477;SDS011;42382;53.210;5.772;2024-01-15T09:02:14;12.75;;;0.95;;
56477;SDS011;42382;53.210;5.772;2024-01-15T09:04:40;10.52;;;0.60;;
56477;SDS011;42382;53.210;5.772;2024-01-15T09:07:09;9.32;;;0.75;;
56477;SDS011;42382;53.210;5.772;2024-01-15T09:09:35;13.38;;;0.80;;
56477;SDS011;42382;53.210;5.772;2024-01-15T09:12:01;11.98;;;0.82;;
56477;SDS011;42382;53.210;5.772;2024-01-15T09:14:27;9.23;;;0.80;;
56477;SDS011;42382;53.210;5.772;2024-01-15T09:16:54;11.77;;;0.88;;
56477;SDS011;42382;53.210;5.772;2024-01-15T09:19:19;12.95;;;0.65;;
56477;SDS011;42382;53.210;5.772;2024-01-15T09:21:45;13.68;;;0.57;;
56477;SDS011;42382;53.210;5.772;2024-01-15T09:24:10;13.07;;;0.80;;
56477;SDS011;42382;53.210;5.772;2024-01-15T09:26:36;9.88;;;0.95;;
56477;SDS011;42382;53.210;5.772;2024-01-15T09:29:05;8.02;;;1.00;;
56477;SDS011;42382;53.210;5.772;2024-01-15T09:31:30;7.68;;;0.60;;
56477;SDS011;42382;53.210;5.772;2024-01-15T09:33:56;14.15;;;0.98;;
56477;SDS011;42382;53.210;5.772;2024-01-15T09:36:23;7.45;;;0.50;;
56477;SDS011;42382;53.210;5.772;2024-01-15T09:38:49;8.98;;;0.47;;
56477;SDS011;42382;53.210;5.772;2024-01-15T09:41:15;5.15;;;0.30;;
56477;SDS011;42382;53.210;5.772;2024-01-15T09:43:40;3.42;;;0.20;;
56477;SDS011;42382;53.210;5.772;2024-01-15T09:46:07;2.38;;;0.15;;
56477;SDS011;42382;53.210;5.772;2024-01-15T09:48:34;5.40;;;0.22;;
56477;SDS011;42382;53.210;5.772;2024-01-15T09:51:01;6.10;;;0.20;;
56477;SDS011;42382;53.210;5.772;2024-01-15T09:53:27;8.25;;;0.28;;
56477;SDS011;42382;53.210;5.772;2024-01-15T09:55:52;8.43;;;0.43;;
56477;SDS011;42382;53.210;5.772;2024-01-15T09:58:18;10.25;;;1.95;;
56477;SDS011;42382;53.210;5.772;2024-01-15T10:00:44;7.90;;;0.30;;
56477;SDS011;42382;53.210;5.772;2024-01-15T10:03:15;1.58;;;0.40;;
56477;SDS011;42382;53.210;5.772;2024-01-15T10:05:40;5.90;;;0.20;;
56477;SDS011;42382;53.210;5.772;2024-01-15T10:08:06;3.08;;;0.10;;
56477;SDS011;42382;53.210;5.772;2024-01-15T10:10:32;1.17;;;0.10;;
56477;SDS011;42382;53.210;5.772;2024-01-15T10:13:01;4.50;;;0.20;;
56477;SDS011;42382;53.210;5.772;2024-01-15T10:15:26;5.15;;;0.10;;
56477;SDS011;42382;53.210;5.772;2024-01-15T10:17:52;1.23;;;0.10;;
56477;SDS011;42382;53.210;5.772;2024-01-15T10:20:17;3.92;;;0.32;;
56477;SDS011;42382;53.210;5.772;2024-01-15T10:22:44;4.90;;;0.25;;
56477;SDS011;42382;53.210;5.772;2024-01-15T10:25:14;4.10;;;0.20;;
56477;SDS011;42382;53.210;5.772;2024-01-15T10:27:40;6.45;;;0.52;;
56477;SDS011;42382;53.210;5.772;2024-01-15T10:30:07;7.88;;;0.30;;
56477;SDS011;42382;53.210;5.772;2024-01-15T10:32:36;7.68;;;0.40;;
56477;SDS011;42382;53.210;5.772;2024-01-15T10:35:01;11.63;;;0.30;;
56477;SDS011;42382;53.210;5.772;2024-01-15T10:37:31;8.43;;;0.43;;
56477;SDS011;42382;53.210;5.772;2024-01-15T10:39:58;8.68;;;1.05;;
56477;SDS011;42382;53.210;5.772;2024-01-15T10:42:30;14.93;;;1.13;;
56477;SDS011;42382;53.210;5.772;2024-01-15T10:44:55;10.23;;;0.70;;
56477;SDS011;42382;53.210;5.772;2024-01-15T10:47:21;12.23;;;0.98;;
56477;SDS011;42382;53.210;5.772;2024-01-15T10:49:47;7.63;;;0.85;;
56477;SDS011;42382;53.210;5.772;2024-01-15T10:52:14;10.70;;;0.80;;
56477;SDS011;42382;53.210;5.772;2024-01-15T10:54:40;10.80;;;1.63;;
56477;SDS011;42382;53.210;5.772;2024-01-15T10:57:08;11.32;;;1.02;;
56477;SDS011;42382;53.210;5.772;2024-01-15T10:59:34;4.78;;;0.20;;
56477;SDS011;42382;53.210;5.772;2024-01-15T11:02:01;4.20;;;0.20;;
56477;SDS011;42382;53.210;5.772;2024-01-15T11:04:26;6.30;;;0.95;;
56477;SDS011;42382;53.210;5.772;2024-01-15T11:06:53;15.50;;;1.10;;
56477;SDS011;42382;53.210;5.772;2024-01-15T11:09:20;12.30;;;0.88;;
56477;SDS011;42382;53.210;5.772;2024-01-15T11:11:46;14.55;;;1.30;;
56477;SDS011;42382;53.210;5.772;2024-01-15T11:17:09;10.68;;;1.00;;
56477;SDS011;42382;53.210;5.772;2024-01-15T11:19:38;10.27;;;0.50;;
56477;SDS011;42382;53.210;5.772;2024-01-15T11:22:56;7.38;;;0.43;;
56477;SDS011;42382;53.210;5.772;2024-01-15T11:25:01;9.80;;;1.20;;
56477;SDS011;42382;53.210;5.772;2024-01-15T11:27:39;6.38;;;0.43;;
56477;SDS011;42382;53.210;5.772;2024-01-15T11:30:11;7.20;;;0.90;;
56477;SDS011;42382;53.210;5.772;2024-01-15T11:32:37;6.22;;;0.30;;
56477;SDS011;42382;53.210;5.772;2024-01-15T11:35:06;10.18;;;0.30;;
56477;SDS011;42382;53.210;5.772;2024-01-15T11:40:35;2.35;;;0.15;;
56477;SDS011;42382;53.210;5.772;2024-01-15T11:43:03;8.38;;;0.30;;
56477;SDS011;42382;53.210;5.772;2024-01-15T11:45:30;4.53;;;0.50;;
56477;SDS011;42382;53.210;5.772;2024-01-15T11:50:48;6.45;;;0.32;;
56477;SDS011;42382;53.210;5.772;2024-01-15T11:53:21;10.90;;;0.77;;
56477;SDS011;42382;53.210;5.772;2024-01-15T11:55:50;6.53;;;1.50;;
56477;SDS011;42382;53.210;5.772;2024-01-15T11:58:17;8.52;;;0.60;;
56477;SDS011;42382;53.210;5.772;2024-01-15T12:00:44;9.98;;;0.73;;
56477;SDS011;42382;53.210;5.772;2024-01-15T12:03:11;10.70;;;1.40;;
56477;SDS011;42382;53.210;5.772;2024-01-15T12:05:37;12.45;;;0.50;;
56477;SDS011;42382;53.210;5.772;2024-01-15T12:08:04;9.00;;;0.95;;
56477;SDS011;42382;53.210;5.772;2024-01-15T12:10:39;5.20;;;0.35;;
56477;SDS011;42382;53.210;5.772;2024-01-15T12:13:12;9.63;;;0.60;;
56477;SDS011;42382;53.210;5.772;2024-01-15T12:15:39;6.22;;;0.28;;
56477;SDS011;42382;53.210;5.772;2024-01-15T12:18:07;7.95;;;0.50;;
56477;SDS011;42382;53.210;5.772;2024-01-15T12:20:33;6.20;;;0.50;;
56477;SDS011;42382;53.210;5.772;2024-01-15T12:22:59;7.30;;;0.50;;
56477;SDS011;42382;53.210;5.772;2024-01-15T12:25:25;11.10;;;0.82;;
56477;SDS011;42382;53.210;5.772;2024-01-15T12:27:54;7.05;;;0.82;;
56477;SDS011;42382;53.210;5.772;2024-01-15T12:30:20;12.05;;;0.55;;
56477;SDS011;42382;53.210;5.772;2024-01-15T12:32:46;12.98;;;1.05;;
56477;SDS011;42382;53.210;5.772;2024-01-15T12:35:12;11.48;;;0.70;;
56477;SDS011;42382;53.210;5.772;2024-01-15T12:37:39;16.27;;;1.08;;
56477;SDS011;42382;53.210;5.772;2024-01-15T12:40:07;20.95;;;1.88;;
56477;SDS011;42382;53.210;5.772;2024-01-15T12:42:35;14.75;;;1.13;;
56477;SDS011;42382;53.210;5.772;2024-01-15T12:45:01;19.42;;;1.60;;
56477;SDS011;42382;53.210;5.772;2024-01-15T12:47:29;17.35;;;1.80;;
56477;SDS011;42382;53.210;5.772;2024-01-15T12:49:56;15.43;;;1.20;;
56477;SDS011;42382;53.210;5.772;2024-01-15T12:52:22;12.27;;;1.13;;
56477;SDS011;42382;53.210;5.772;2024-01-15T12:54:48;18.23;;;1.58;;
56477;SDS011;42382;53.210;5.772;2024-01-15T12:57:15;14.25;;;1.73;;
56477;SDS011;42382;53.210;5.772;2024-01-15T12:59:41;9.05;;;1.33;;
56477;SDS011;42382;53.210;5.772;2024-01-15T13:02:07;18.35;;;1.33;;
56477;SDS011;42382;53.210;5.772;2024-01-15T13:04:33;15.55;;;1.20;;
56477;SDS011;42382;53.210;5.772;2024-01-15T13:06:59;17.08;;;2.30;;
56477;SDS011;42382;53.210;5.772;2024-01-15T13:09:24;14.18;;;1.30;;
56477;SDS011;42382;53.210;5.772;2024-01-15T13:11:50;19.88;;;1.77;;
56477;SDS011;42382;53.210;5.772;2024-01-15T13:14:17;17.23;;;2.03;;
56477;SDS011;42382;53.210;5.772;2024-01-15T13:16:43;17.15;;;1.65;;
56477;SDS011;42382;53.210;5.772;2024-01-15T13:19:09;18.35;;;1.50;;
56477;SDS011;42382;53.210;5.772;2024-01-15T13:21:38;16.00;;;1.70;;
56477;SDS011;42382;53.210;5.772;2024-01-15T13:24:07;12.02;;;1.30;;
56477;SDS011;42382;53.210;5.772;2024-01-15T13:26:34;16.75;;;1.75;;
56477;SDS011;42382;53.210;5.772;2024-01-15T13:29:01;15.38;;;1.40;;
56477;SDS011;42382;53.210;5.772;2024-01-15T13:31:29;6.18;;;0.57;;
56477;SDS011;42382;53.210;5.772;2024-01-15T13:33:57;8.10;;;0.40;;
56477;SDS011;42382;53.210;5.772;2024-01-15T13:36:24;3.22;;;0.20;;
56477;SDS011;42382;53.210;5.772;2024-01-15T13:38:50;6.05;;;0.28;;
56477;SDS011;42382;53.210;5.772;2024-01-15T13:41:17;6.13;;;0.20;;
56477;SDS011;42382;53.210;5.772;2024-01-15T13:43:55;8.40;;;0.20;;
56477;SDS011;42382;53.210;5.772;2024-01-15T13:46:22;5.25;;;0.30;;
56477;SDS011;42382;53.210;5.772;2024-01-15T13:48:52;8.73;;;0.68;;
56477;SDS011;42382;53.210;5.772;2024-01-15T13:51:18;10.27;;;0.88;;
56477;SDS011;42382;53.210;5.772;2024-01-15T13:53:47;14.52;;;1.77;;
56477;SDS011;42382;53.210;5.772;2024-01-15T13:56:12;12.73;;;1.40;;
56477;SDS011;42382;53.210;5.772;2024-01-15T13:58:38;17.48;;;1.83;;
56477;SDS011;42382;53.210;5.772;2024-01-15T14:01:04;17.98;;;1.60;;
56477;SDS011;42382;53.210;5.772;2024-01-15T14:03:30;19.42;;;1.55;;
56477;SDS011;42382;53.210;5.772;2024-01-15T14:05:56;13.63;;;1.20;;
56477;SDS011;42382;53.210;5.772;2024-01-15T14:08:22;11.93;;;1.27;;
56477;SDS011;42382;53.210;5.772;2024-01-15T14:10:48;14.00;;;0.98;;
56477;SDS011;42382;53.210;5.772;2024-01-15T14:13:14;15.30;;;4.13;;
56477;SDS011;42382;53.210;5.772;2024-01-15T14:15:39;13.57;;;2.00;;
56477;SDS011;42382;53.210;5.772;2024-01-15T14:18:05;18.10;;;1.92;;
56477;SDS011;42382;53.210;5.772;2024-01-15T14:20:30;10.02;;;1.98;;
56477;SDS011;42382;53.210;5.772;2024-01-15T14:22:56;4.28;;;0.40;;
56477;SDS011;42382;53.210;5.772;2024-01-15T14:25:21;2.58;;;0.10;;
56477;SDS011;42382;53.210;5.772;2024-01-15T14:27:49;2.95;;;0.10;;
56477;SDS011;42382;53.210;5.772;2024-01-15T14:30:15;5.63;;;0.20;;
56477;SDS011;42382;53.210;5.772;2024-01-15T14:32:41;3.58;;;0.15;;
56477;SDS011;42382;53.210;5.772;2024-01-15T14:35:10;5.20;;;0.30;;
56477;SDS011;42382;53.210;5.772;2024-01-15T14:37:39;3.28;;;0.43;;
56477;SDS011;42382;53.210;5.772;2024-01-15T14:40:08;3.60;;;0.43;;
56477;SDS011;42382;53.210;5.772;2024-01-15T14:42:35;8.38;;;0.63;;